Latest Weather Observations for Mount Crawford

IDS60801

Issued at 12:31 am CST Thursday 28 July 2016 (issued every 30 minutes, with the page automatically refreshed every 10 minutes)

About weather observations | Map of weather stations | Latest weather observations for SA | Other Formats
Station Details ID: 023878 Name: MOUNT CRAWFORD AWS Lat: -34.73 Lon: 138.93 Height: 525.0 m
Data from the previous 72 hours. | See also: Recent months at Mount Crawford
Date/Time
CST
Temp
°C
App
Temp
°C
Dew
Point
°C
Rel
Hum
%
Delta-T
°C
Wind Press
QNH
hPa
Press
MSL
hPa
Rain since
9am
mm
Dir  Spd
km/h
Gust
km/h
Spd
kts
Gust
kts
28/12:30am 7.1 1.5 7.0 99 0.0 W 26 35 14 19 1025.6 1026.1 0.0
28/12:00am 7.1 1.1 7.0 99 0.0 W 28 37 15 20 1025.5 1026.0 0.0
 
Date/Time
CST
Temp
°C
App
Temp
°C
Dew
Point
°C
Rel
Hum
%
Delta-T
°C
Wind Press
QNH
hPa
Press
MSL
hPa
Rain since
9am
mm
Dir  Spd
km/h
Gust
km/h
Spd
kts
Gust
kts
27/11:30pm 7.1 0.7 6.8 98 0.1 W 30 41 16 22 1025.5 1026.0 0.0
27/11:00pm 7.1 0.6 6.7 97 0.2 W 30 43 16 23 1025.6 1026.1 0.0
27/10:30pm 7.2 1.2 7.1 99 0.0 W 28 43 15 23 1025.6 1026.1 0.0
27/10:00pm 7.0 1.4 7.0 100 0.0 W 26 35 14 19 1025.8 1026.4 0.0
27/09:30pm 7.1 1.8 7.0 99 0.0 W 24 35 13 19 1026.0 1026.6 0.0
27/09:00pm 7.1 1.1 7.0 99 0.0 W 28 41 15 22 1025.9 1026.5 0.0
27/08:30pm 7.0 1.3 6.9 99 0.0 W 26 37 14 20 1025.8 1026.4 0.0
27/08:00pm 6.8 1.5 6.7 99 0.0 W 24 35 13 19 1025.9 1026.5 0.0
27/07:30pm 6.7 1.4 6.6 99 0.0 W 24 32 13 17 1025.7 1026.2 0.0
27/07:00pm 6.8 1.5 6.7 99 0.0 W 24 33 13 18 1025.4 1025.9 0.0
27/06:30pm 6.8 2.1 6.1 95 0.3 W 20 26 11 14 1025.2 1025.7 0.0
27/06:00pm 7.0 2.2 5.8 92 0.6 W 20 28 11 15 1024.8 1025.4 0.0
27/05:30pm 7.3 2.5 5.6 89 0.8 WSW 20 30 11 16 1024.6 1025.2 0.0
27/05:00pm 7.7 3.1 5.7 87 0.9 WSW 19 26 10 14 1024.5 1025.1 0.0
27/04:30pm 8.0 3.2 5.5 84 1.2 WSW 20 30 11 16 1024.3 1024.9 0.0
27/04:00pm 8.0 3.1 5.1 82 1.3 WSW 20 32 11 17 1024.1 1024.6 0.0
27/03:30pm 8.1 3.2 4.9 80 1.5 WSW 20 33 11 18 1024.0 1024.5 0.0
27/03:00pm 8.1 2.4 4.7 79 1.5 WSW 24 39 13 21 1023.6 1024.1 0.0
27/02:30pm 9.4 3.5 5.6 77 1.8 WSW 26 41 14 22 1023.2 1023.7 0.0
27/02:00pm 8.8 3.6 5.7 81 1.5 WSW 22 32 12 17 1022.9 1023.5 0.0
27/01:30pm 9.3 4.6 6.0 80 1.6 WSW 20 30 11 16 1022.5 1023.0 0.0
27/01:00pm 9.1 4.0 5.8 80 1.6 WSW 22 32 12 17 1022.8 1023.4 0.0
27/12:30pm 9.1 4.5 6.4 83 1.3 WSW 20 35 11 19 1022.7 1023.3 0.0
27/12:00pm 8.4 3.6 5.7 83 1.3 WSW 20 28 11 15 1022.6 1023.2 0.0
27/11:30am 8.9 4.0 5.3 78 1.7 WSW 20 33 11 18 1022.4 1022.9 0.0
27/11:00am 8.3 3.4 5.1 80 1.5 SW 20 37 11 20 1022.5 1023.0 0.0
27/10:30am 7.6 3.0 5.7 88 0.9 SW 19 32 10 17 1022.3 1022.8 0.0
27/10:00am 7.3 3.0 5.3 87 0.9 SW 17 24 9 13 1021.4 1021.9 0.0
27/09:30am 6.9 2.6 5.2 89 0.8 SW 17 32 9 17 1021.5 1022.0 0.0
27/09:00am 6.9 2.7 5.7 92 0.6 SW 17 28 9 15 1020.7 1021.2 17.2
27/08:30am 6.6 1.8 5.6 93 0.5 SW 20 32 11 17 1020.1 1020.6 17.2
27/08:00am 6.4 1.8 5.7 95 0.3 WSW 19 28 10 15 1019.4 1019.9 17.2
27/07:30am 6.4 1.8 6.3 99 0.0 SW 20 32 11 17 1018.9 1019.4 17.2
27/07:00am 6.3 1.3 6.3 100 0.0 SW 22 37 12 20 1018.3 1018.8 17.2
27/06:30am 6.4 - - - - SW 30 48 16 26 1017.7 1018.1 17.2
27/06:28am 6.4 - - - - SW 28 48 15 26 1017.5 1017.9 17.2
27/06:00am 6.2 - - - - SW 24 37 13 20 1016.9 1017.4 17.2
27/05:30am 6.5 - - - - WSW 28 41 15 22 1016.3 1016.8 17.2
27/05:09am 6.4 - - - - WSW 30 52 16 28 1015.7 1016.1 17.2
27/05:00am 6.5 - - - - SW 28 44 15 24 1015.5 1015.9 17.2
27/04:30am 6.8 - - - - WSW 26 43 14 23 1015.1 1015.5 17.0
27/04:00am 6.7 - - - - WSW 26 39 14 21 1014.6 1015.1 17.0
27/03:30am 6.8 - - - - WSW 30 54 16 29 1014.4 1014.8 17.0
27/03:15am 7.0 - - - - WSW 28 48 15 26 1014.2 1014.6 17.0
27/03:00am 7.1 - - - - WSW 30 43 16 23 1014.0 1014.4 17.0
27/02:33am 7.0 - - - - WSW 28 46 15 25 1013.6 1014.0 16.8
27/02:30am 7.0 - - - - W 26 41 14 22 1013.6 1014.0 16.8
27/02:00am 6.8 - - - - WSW 26 39 14 21 1013.3 1013.7 16.8
27/01:30am 6.9 - - - - WSW 28 46 15 25 1012.9 1013.4 16.8
27/01:25am 6.9 - - - - WSW 28 46 15 25 1012.8 1013.3 16.8
27/01:00am 7.0 - - - - WSW 33 46 18 25 1012.1 1012.5 16.8
27/12:34am 6.8 - - - - WSW 37 56 20 30 1011.6 1012.0 16.6
27/12:30am 6.8 - - - - WSW 39 56 21 30 1011.6 1012.0 16.6
27/12:08am 6.9 - - - - WSW 33 52 18 28 1011.6 1012.0 16.6
27/12:00am 6.8 - - - - W 35 48 19 26 1011.5 1011.9 16.6
 
Date/Time
CST
Temp
°C
App
Temp
°C
Dew
Point
°C
Rel
Hum
%
Delta-T
°C
Wind Press
QNH
hPa
Press
MSL
hPa
Rain since
9am
mm
Dir  Spd
km/h
Gust
km/h
Spd
kts
Gust
kts
26/11:30pm 6.7 - - - - W 33 50 18 27 1011.3 1011.7 16.4
26/11:00pm 6.4 - - - - W 39 57 21 31 1010.7 1011.1 16.4
26/10:30pm 6.8 - - - - WSW 39 59 21 32 1010.4 1010.8 16.4
26/10:00pm 6.8 - - - - WSW 37 56 20 30 1010.2 1010.6 16.2
26/09:43pm 7.3 - - - - WSW 33 57 18 31 1010.0 1010.4 15.6
26/09:30pm 7.4 - - - - W 32 44 17 24 1009.7 1010.1 15.0
26/09:00pm 7.5 - - - - W 35 54 19 29 1009.3 1009.6 14.8
26/08:30pm 7.5 - - - - W 43 63 23 34 1008.6 1009.0 14.8
26/08:00pm 7.4 - - - - W 44 67 24 36 1007.7 1008.0 14.6
26/07:30pm 7.2 -2.2 7.2 100 0.0 WSW 46 74 25 40 1007.5 1007.8 14.4
26/07:00pm 7.6 -3.6 7.6 100 0.0 W 56 83 30 45 1006.2 1006.5 12.0
26/06:30pm 7.5 -3.3 7.5 100 0.0 W 54 87 29 47 1005.6 1005.9 11.2
26/06:26pm 7.5 -2.6 7.5 100 0.0 WNW 50 87 27 47 1005.7 1006.0 11.2
26/06:00pm 7.3 -2.1 7.3 100 0.0 WNW 46 69 25 37 1005.7 1006.0 9.0
26/05:53pm 7.3 -2.4 7.3 100 0.0 WNW 48 67 26 36 1005.8 1006.1 7.8
26/05:52pm 7.3 -2.4 7.3 100 0.0 WNW 48 67 26 36 1005.8 1006.1 7.6
26/05:30pm 7.2 -2.2 7.2 100 0.0 NW 46 69 25 37 1005.7 1006.0 5.6
26/05:00pm 7.0 -1.1 7.0 100 0.0 WNW 39 59 21 32 1006.4 1006.8 4.8
26/04:30pm 6.6 -1.6 6.6 100 0.0 WNW 39 69 21 37 1007.3 1007.6 4.8
26/04:00pm 6.3 -2.3 6.3 100 0.0 WNW 41 61 22 33 1008.1 1008.5 4.2
26/03:54pm 6.3 -2.3 6.3 100 0.0 WNW 41 59 22 32 1008.1 1008.5 4.0
26/03:30pm 6.4 -1.1 6.4 100 0.0 WNW 35 52 19 28 1008.5 1008.9 2.4
26/03:14pm 6.4 -1.8 6.4 100 0.0 NW 39 59 21 32 1008.4 1008.8 2.0
26/03:00pm 6.4 -0.5 6.4 100 0.0 NW 32 48 17 26 1009.1 1009.4 1.6
26/02:35pm 6.3 -0.2 6.3 100 0.0 NW 30 48 16 26 1009.4 1009.7 1.0
26/02:30pm 6.3 -0.2 6.3 100 0.0 WNW 30 44 16 24 1009.6 1009.9 0.8
26/02:10pm 6.1 -0.9 6.1 100 0.0 WNW 32 54 17 29 1009.9 1010.3 0.8
26/02:00pm 6.3 -1.2 6.2 99 0.0 WNW 35 50 19 27 1010.0 1010.4 0.6
26/01:30pm 6.7 -0.9 5.8 94 0.4 WNW 35 56 19 30 1010.9 1011.3 0.0
26/01:00pm 7.2 0.1 5.5 89 0.8 NW 32 50 17 27 1011.3 1011.7 0.0
26/12:52pm 7.4 0.4 6.2 92 0.6 WNW 32 50 17 27 1011.4 1011.8 0.0
26/12:30pm 7.1 0.1 7.0 99 0.0 WNW 33 46 18 25 1012.0 1012.4 0.0
26/12:00pm 6.9 -0.5 6.8 99 0.0 WNW 35 54 19 29 1012.2 1012.6 0.0
26/11:30am 6.5 -1.7 6.5 100 0.0 WNW 39 59 21 32 1012.7 1013.1 0.0
26/11:21am 6.3 -0.8 6.3 100 0.0 WNW 33 52 18 28 1012.9 1013.4 0.0
26/11:00am 6.2 -0.9 6.2 100 0.0 WNW 33 50 18 27 1013.2 1013.6 0.0
26/10:38am 5.8 -1.4 5.8 100 0.0 WNW 33 56 18 30 1013.5 1013.9 0.0
26/10:30am 5.7 -1.5 5.7 100 0.0 WNW 33 50 18 27 1013.4 1013.8 0.0
26/10:14am 5.3 -1.5 5.3 100 0.0 WNW 30 48 16 26 1013.7 1014.1 0.0
26/10:00am 5.1 -0.9 5.1 100 0.0 WNW 26 39 14 21 1013.8 1014.2 0.0
26/09:30am 4.4 -1.0 4.4 100 0.0 WNW 22 30 12 16 1014.1 1014.5 0.0
26/09:00am 4.1 -1.0 4.1 100 0.0 WNW 20 32 11 17 1014.0 1014.4 10.8
26/08:30am 4.1 -1.0 4.1 100 0.0 WNW 20 28 11 15 1014.0 1014.4 10.8
26/08:00am 4.0 -1.1 4.0 100 0.0 WNW 20 30 11 16 1014.0 1014.4 10.8
26/07:30am 4.1 -1.4 4.1 100 0.0 W 22 32 12 17 1014.1 1014.5 10.8
26/07:00am 3.8 -0.8 3.8 100 0.0 W 17 24 9 13 1014.2 1014.6 10.4
26/06:30am 3.7 -1.5 3.7 100 0.0 W 20 28 11 15 1014.0 1014.4 10.2
26/06:00am 4.1 -1.4 4.1 100 0.0 W 22 28 12 15 1014.0 1014.4 10.2
26/05:30am 3.9 -1.6 3.9 100 0.0 W 22 28 12 15 1013.9 1014.3 10.2
26/05:00am 3.9 -2.4 3.9 100 0.0 W 26 33 14 18 1013.6 1014.0 10.2
26/04:30am 4.2 -1.6 4.2 100 0.0 W 24 32 13 17 1013.8 1014.2 10.2
26/04:00am 4.4 -1.0 4.3 99 0.0 W 22 32 12 17 1013.9 1014.3 10.2
26/03:30am 4.2 -1.7 4.1 99 0.0 W 24 32 13 17 1014.0 1014.4 10.2
26/03:00am 4.2 -2.4 4.1 99 0.0 W 28 37 15 20 1014.2 1014.6 10.2
26/02:30am 4.0 -1.9 3.9 99 0.0 W 24 35 13 19 1014.3 1014.7 10.2
26/02:00am 4.3 -2.3 4.2 99 0.0 W 28 33 15 18 1014.5 1015.0 10.2
26/01:30am 4.6 -1.6 4.2 97 0.2 W 26 35 14 19 1014.7 1015.2 10.2
26/01:00am 4.6 -2.4 4.2 97 0.2 W 30 39 16 21 1014.6 1015.1 10.2
26/12:30am 4.6 -1.9 4.5 99 0.0 W 28 35 15 19 1014.8 1015.3 10.2
26/12:00am 4.7 -0.7 4.6 99 0.0 W 22 32 12 17 1015.1 1015.5 10.2
 
Date/Time
CST
Temp
°C
App
Temp
°C
Dew
Point
°C
Rel
Hum
%
Delta-T
°C
Wind Press
QNH
hPa
Press
MSL
hPa
Rain since
9am
mm
Dir  Spd
km/h
Gust
km/h
Spd
kts
Gust
kts
25/11:30pm 4.6 -0.8 4.5 99 0.0 WSW 22 35 12 19 1015.2 1015.6 10.2
25/11:00pm 4.9 -0.8 4.8 99 0.0 WSW 24 33 13 18 1015.1 1015.5 10.2
25/10:30pm 5.0 -0.7 4.9 99 0.0 WSW 24 37 13 20 1014.8 1015.3 10.2
25/10:00pm 5.2 -1.2 5.1 99 0.0 WSW 28 44 15 24 1014.3 1014.7 10.2
25/09:30pm 5.5 -1.6 5.4 99 0.0 WSW 32 50 17 27 1014.4 1014.8 10.2
25/09:14pm 6.0 -1.0 6.0 100 0.0 WSW 32 50 17 27 1014.2 1014.6 10.2
25/09:00pm 5.9 -1.7 5.9 100 0.0 WSW 35 52 19 28 1014.1 1014.5 10.2
25/08:30pm 6.3 -2.7 6.3 100 0.0 W 43 63 23 34 1013.2 1013.6 10.2
25/08:00pm 6.4 - - - - W 43 65 23 35 1012.7 1013.1 10.2
25/07:30pm 6.4 - - - - W 46 67 25 36 1012.3 1012.7 10.2
25/07:00pm 6.4 - - - - W 50 70 27 38 1011.9 1012.3 10.2
25/06:30pm 6.4 - - - - W 48 76 26 41 1011.5 1011.9 10.0
25/06:00pm 6.5 - - - - WSW 48 72 26 39 1011.2 1011.5 9.8
25/05:30pm 6.9 -2.0 6.9 100 0.0 WSW 43 69 23 37 1011.3 1011.7 9.6
25/05:00pm 7.2 -1.2 7.2 100 0.0 WSW 41 67 22 36 1011.1 1011.4 9.4
25/04:30pm 8.4 -1.5 8.4 100 0.0 WSW 50 72 27 39 1010.4 1010.8 9.2
25/04:00pm 8.7 1.0 8.7 100 0.0 W 39 65 21 35 1010.4 1010.8 7.8
25/03:58pm 8.7 1.0 8.7 100 0.0 W 39 65 21 35 1010.4 1010.8 7.6
25/03:32pm 8.5 -0.6 8.5 100 0.0 WNW 46 65 25 35 1010.1 1010.5 4.6
25/03:30pm 8.5 -1.0 8.5 100 0.0 WNW 48 61 26 33 1010.1 1010.5 4.6
25/03:00pm 8.3 -0.8 8.3 100 0.0 WNW 46 65 25 35 1010.5 1010.9 3.8
25/02:30pm 8.0 -0.2 8.0 100 0.0 WNW 41 65 22 35 1010.7 1011.1 2.2
25/02:04pm 8.0 0.1 8.0 100 0.0 WNW 39 57 21 31 1010.9 1011.3 1.4
25/02:00pm 7.9 0.4 7.9 100 0.0 WNW 37 50 20 27 1011.2 1011.5 1.4
25/01:30pm 7.7 -1.6 7.7 100 0.0 WNW 46 78 25 42 1011.5 1011.9 0.6
25/01:00pm 7.7 -2.0 7.7 100 0.0 WNW 48 67 26 36 1011.7 1012.1 0.4
25/12:30pm 8.3 0.1 8.3 100 0.0 W 41 63 22 34 1012.1 1012.5 0.0
25/12:00pm 8.1 -1.1 8.1 100 0.0 W 46 70 25 38 1012.3 1012.7 0.0
25/11:30am 7.6 -0.7 7.6 100 0.0 WNW 41 61 22 33 1012.7 1013.1 0.0
25/11:00am 7.1 -1.4 7.1 100 0.0 WNW 41 65 22 35 1013.2 1013.6 0.0
25/10:33am 7.0 0.0 7.0 100 0.0 WNW 33 63 18 34 1013.3 1013.7 0.0
25/10:30am 6.9 -0.1 6.9 100 0.0 WNW 33 44 18 24 1013.5 1013.9 0.0
25/10:00am 6.0 -1.0 6.0 100 0.0 WNW 32 50 17 27 1014.0 1014.4 0.0
25/09:41am 5.9 -1.3 5.9 100 0.0 WNW 33 52 18 28 1014.0 1014.4 0.0
25/09:30am 5.8 -1.2 5.8 100 0.0 WNW 32 44 17 24 1013.9 1014.3 0.0
25/09:02am 5.3 -1.8 5.3 100 0.0 WNW 32 50 17 27 1013.6 1014.0 0.0
25/09:00am 5.3 -1.8 5.3 100 0.0 WNW 32 46 17 25 1013.6 1014.0 12.6
25/08:30am 5.3 -1.8 5.3 100 0.0 WNW 32 44 17 24 1013.5 1013.9 12.6
25/08:00am 5.3 -1.1 5.3 100 0.0 W 28 43 15 23 1013.4 1013.8 12.6
25/07:30am 5.3 -1.5 5.3 100 0.0 WNW 30 41 16 22 1013.6 1014.0 12.6
25/07:00am 5.6 -0.7 5.6 100 0.0 W 28 43 15 23 1013.5 1013.9 12.6
25/06:30am 5.8 -0.9 5.8 100 0.0 W 30 44 16 24 1013.4 1013.8 12.6
25/06:00am 5.8 -0.1 5.8 100 0.0 W 26 37 14 20 1013.3 1013.7 12.6
25/05:30am 5.8 -0.5 5.8 100 0.0 W 28 37 15 20 1013.3 1013.7 12.6
25/05:00am 5.8 -0.5 5.8 100 0.0 W 28 35 15 19 1013.2 1013.6 12.6
25/04:30am 5.7 -0.6 5.7 100 0.0 W 28 39 15 21 1012.7 1013.1 12.6
25/04:00am 5.8 -1.2 5.8 100 0.0 WSW 32 44 17 24 1012.7 1013.1 12.4
25/03:30am 5.7 -1.4 5.7 100 0.0 W 32 44 17 24 1012.8 1013.3 12.4
25/03:00am 5.7 -0.2 5.7 100 0.0 W 26 35 14 19 1013.1 1013.5 12.4
25/02:30am 5.9 -0.4 5.9 100 0.0 WSW 28 39 15 21 1013.1 1013.5 12.4
25/02:00am 5.8 -0.5 5.8 100 0.0 WSW 28 41 15 22 1012.9 1013.4 12.4
25/01:30am 5.9 -0.7 5.9 100 0.0 WSW 30 46 16 25 1012.7 1013.1 12.4
25/01:00am 5.8 -1.8 5.8 100 0.0 WSW 35 57 19 31 1012.3 1012.7 12.0

Other Formats:

Comma delimited format used in spreadsheet applications
http://www.bom.gov.au/fwo/IDS60801/IDS60801.94678.axf

JavaScript Object Notation format (JSON) in row-major order
http://www.bom.gov.au/fwo/IDS60801/IDS60801.94678.json